sensor_id;sensor_type;location;lat;lon;timestamp;pressure;altitude;pressure_sealevel;temperature;humidity
74722;BME280;63470;49.826;6.740;2023-04-01T00:01:12;98469.70;;;9.72;62.96
74722;BME280;63470;49.826;6.740;2023-04-01T00:03:44;98466.47;;;9.73;62.94
74722;BME280;63470;49.826;6.740;2023-04-01T00:06:15;98476.05;;;9.76;62.91
74722;BME280;63470;49.826;6.740;2023-04-01T00:08:46;98472.67;;;9.80;62.87
74722;BME280;63470;49.826;6.740;2023-04-01T00:11:14;98470.66;;;9.83;62.86
74722;BME280;63470;49.826;6.740;2023-04-01T00:13:44;98466.95;;;9.87;62.85
74722;BME280;63470;49.826;6.740;2023-04-01T00:16:13;98466.55;;;9.91;62.84
74722;BME280;63470;49.826;6.740;2023-04-01T00:18:43;98454.58;;;9.94;62.86
74722;BME280;63470;49.826;6.740;2023-04-01T00:21:14;98463.06;;;10.00;62.84
74722;BME280;63470;49.826;6.740;2023-04-01T00:23:47;98459.84;;;10.05;62.79
74722;BME280;63470;49.826;6.740;2023-04-01T00:26:20;98468.22;;;10.10;62.73
74722;BME280;63470;49.826;6.740;2023-04-01T00:28:48;98462.25;;;10.15;62.70
74722;BME280;63470;49.826;6.740;2023-04-01T00:31:16;98450.61;;;10.20;62.65
74722;BME280;63470;49.826;6.740;2023-04-01T00:33:47;98441.41;;;10.22;62.65
74722;BME280;63470;49.826;6.740;2023-04-01T00:36:20;98448.13;;;10.25;62.66
74722;BME280;63470;49.826;6.740;2023-04-01T00:38:48;98451.52;;;10.29;62.64
74722;BME280;63470;49.826;6.740;2023-04-01T00:41:19;98456.88;;;10.32;62.62
74722;BME280;63470;49.826;6.740;2023-04-01T00:43:50;98456.58;;;10.34;62.60
74722;BME280;63470;49.826;6.740;2023-04-01T00:46:20;98455.71;;;10.36;62.62
74722;BME280;63470;49.826;6.740;2023-04-01T00:48:54;98453.31;;;10.38;62.61
74722;BME280;63470;49.826;6.740;2023-04-01T00:51:23;98458.48;;;10.41;62.61
74722;BME280;63470;49.826;6.740;2023-04-01T00:53:53;98449.24;;;10.43;62.58
74722;BME280;63470;49.826;6.740;2023-04-01T00:56:25;98463.50;;;10.45;62.59
74722;BME280;63470;49.826;6.740;2023-04-01T00:58:56;98443.63;;;10.47;62.59
74722;BME280;63470;49.826;6.740;2023-04-01T01:01:23;98453.27;;;10.49;62.60
74722;BME280;63470;49.826;6.740;2023-04-01T01:03:52;98441.30;;;10.51;62.56
74722;BME280;63470;49.826;6.740;2023-04-01T01:06:34;98433.44;;;10.54;62.56
74722;BME280;63470;49.826;6.740;2023-04-01T01:09:28;98442.28;;;10.55;62.54
74722;BME280;63470;49.826;6.740;2023-04-01T01:11:37;98433.34;;;10.52;62.51
74722;BME280;63470;49.826;6.740;2023-04-01T01:14:10;98436.20;;;10.51;62.55
74722;BME280;63470;49.826;6.740;2023-04-01T01:16:28;98431.40;;;10.51;62.57
74722;BME280;63470;49.826;6.740;2023-04-01T01:19:16;98423.81;;;10.51;62.57
74722;BME280;63470;49.826;6.740;2023-04-01T01:24:25;98425.28;;;10.48;62.55
74722;BME280;63470;49.826;6.740;2023-04-01T01:26:46;98423.17;;;10.44;62.58
74722;BME280;63470;49.826;6.740;2023-04-01T01:31:37;98420.08;;;10.39;62.72
74722;BME280;63470;49.826;6.740;2023-04-01T01:36:32;98422.46;;;10.39;62.76
74722;BME280;63470;49.826;6.740;2023-04-01T01:39:03;98412.50;;;10.39;62.75
74722;BME280;63470;49.826;6.740;2023-04-01T01:41:32;98408.94;;;10.37;62.79
74722;BME280;63470;49.826;6.740;2023-04-01T01:44:03;98421.08;;;10.35;62.80
74722;BME280;63470;49.826;6.740;2023-04-01T01:46:31;98409.03;;;10.32;62.84
74722;BME280;63470;49.826;6.740;2023-04-01T01:49:02;98413.84;;;10.29;62.88
74722;BME280;63470;49.826;6.740;2023-04-01T01:51:32;98419.80;;;10.26;62.84
74722;BME280;63470;49.826;6.740;2023-04-01T01:54:03;98418.41;;;10.22;62.80
74722;BME280;63470;49.826;6.740;2023-04-01T01:56:34;98431.50;;;10.19;62.83
74722;BME280;63470;49.826;6.740;2023-04-01T01:59:08;98424.52;;;10.17;62.84
74722;BME280;63470;49.826;6.740;2023-04-01T02:01:37;98436.20;;;10.15;62.88
74722;BME280;63470;49.826;6.740;2023-04-01T02:04:09;98424.92;;;10.13;62.91
74722;BME280;63470;49.826;6.740;2023-04-01T02:06:39;98433.30;;;10.09;62.97
74722;BME280;63470;49.826;6.740;2023-04-01T02:09:08;98431.26;;;10.05;62.97
74722;BME280;63470;49.826;6.740;2023-04-01T02:11:43;98440.17;;;9.99;63.02
74722;BME280;63470;49.826;6.740;2023-04-01T02:14:13;98437.16;;;9.92;63.09
74722;BME280;63470;49.826;6.740;2023-04-01T02:19:13;98449.43;;;9.84;63.18
74722;BME280;63470;49.826;6.740;2023-04-01T02:21:40;98441.67;;;9.81;63.17
74722;BME280;63470;49.826;6.740;2023-04-01T02:24:12;98445.95;;;9.77;63.18
74722;BME280;63470;49.826;6.740;2023-04-01T02:26:40;98444.16;;;9.73;63.11
74722;BME280;63470;49.826;6.740;2023-04-01T02:29:11;98440.14;;;9.68;63.08
74722;BME280;63470;49.826;6.740;2023-04-01T02:31:42;98448.47;;;9.64;63.07
74722;BME280;63470;49.826;6.740;2023-04-01T02:34:16;98450.77;;;9.60;63.07
74722;BME280;63470;49.826;6.740;2023-04-01T02:36:44;98451.44;;;9.57;63.06
74722;BME280;63470;49.826;6.740;2023-04-01T02:39:13;98442.43;;;9.55;63.07
74722;BME280;63470;49.826;6.740;2023-04-01T02:41:45;98451.02;;;9.54;63.07
74722;BME280;63470;49.826;6.740;2023-04-01T02:44:15;98442.75;;;9.53;63.06
74722;BME280;63470;49.826;6.740;2023-04-01T02:46:45;98445.02;;;9.53;63.03
74722;BME280;63470;49.826;6.740;2023-04-01T02:49:15;98449.13;;;9.53;63.01
74722;BME280;63470;49.826;6.740;2023-04-01T02:51:46;98443.85;;;9.54;62.98
74722;BME280;63470;49.826;6.740;2023-04-01T02:54:16;98443.00;;;9.53;62.97
74722;BME280;63470;49.826;6.740;2023-04-01T02:56:47;98437.41;;;9.53;62.97
74722;BME280;63470;49.826;6.740;2023-04-01T02:59:17;98433.20;;;9.53;62.96
74722;BME280;63470;49.826;6.740;2023-04-01T03:01:53;98436.52;;;9.54;62.98
74722;BME280;63470;49.826;6.740;2023-04-01T03:04:18;98436.82;;;9.55;62.99
74722;BME280;63470;49.826;6.740;2023-04-01T03:06:48;98436.58;;;9.57;62.98
74722;BME280;63470;49.826;6.740;2023-04-01T03:09:19;98427.23;;;9.57;62.99
74722;BME280;63470;49.826;6.740;2023-04-01T03:11:49;98438.72;;;9.59;63.02
74722;BME280;63470;49.826;6.740;2023-04-01T03:14:20;98430.42;;;9.60;62.95
74722;BME280;63470;49.826;6.740;2023-04-01T03:16:50;98431.81;;;9.62;62.90
74722;BME280;63470;49.826;6.740;2023-04-01T03:19:21;98445.48;;;9.62;62.90
74722;BME280;63470;49.826;6.740;2023-04-01T03:21:51;98433.62;;;9.61;62.91
74722;BME280;63470;49.826;6.740;2023-04-01T03:24:22;98432.54;;;9.59;62.94
74722;BME280;63470;49.826;6.740;2023-04-01T03:26:52;98435.61;;;9.58;62.99
74722;BME280;63470;49.826;6.740;2023-04-01T03:29:22;98438.41;;;9.58;62.97
74722;BME280;63470;49.826;6.740;2023-04-01T03:31:58;98433.45;;;9.57;63.02
74722;BME280;63470;49.826;6.740;2023-04-01T03:34:24;98444.48;;;9.57;63.02
74722;BME280;63470;49.826;6.740;2023-04-01T03:36:53;98446.39;;;9.56;63.09
74722;BME280;63470;49.826;6.740;2023-04-01T03:39:24;98432.65;;;9.56;63.07
74722;BME280;63470;49.826;6.740;2023-04-01T03:41:55;98447.95;;;9.57;63.05
74722;BME280;63470;49.826;6.740;2023-04-01T03:44:25;98435.03;;;9.56;63.04
74722;BME280;63470;49.826;6.740;2023-04-01T03:46:56;98440.14;;;9.56;63.07
74722;BME280;63470;49.826;6.740;2023-04-01T03:49:26;98439.73;;;9.56;63.04
74722;BME280;63470;49.826;6.740;2023-04-01T03:51:57;98427.21;;;9.56;63.02
74722;BME280;63470;49.826;6.740;2023-04-01T03:54:27;98432.97;;;9.54;63.00
74722;BME280;63470;49.826;6.740;2023-04-01T03:57:01;98425.70;;;9.53;63.01
74722;BME280;63470;49.826;6.740;2023-04-01T03:59:28;98421.59;;;9.51;63.05
74722;BME280;63470;49.826;6.740;2023-04-01T04:01:59;98423.12;;;9.49;63.10
74722;BME280;63470;49.826;6.740;2023-04-01T04:04:29;98414.19;;;9.49;63.11
74722;BME280;63470;49.826;6.740;2023-04-01T04:07:00;98418.58;;;9.48;63.09
74722;BME280;63470;49.826;6.740;2023-04-01T04:09:31;98421.77;;;9.47;63.07
74722;BME280;63470;49.826;6.740;2023-04-01T04:12:00;98417.35;;;9.45;63.04
74722;BME280;63470;49.826;6.740;2023-04-01T04:14:36;98424.30;;;9.43;63.03
74722;BME280;63470;49.826;6.740;2023-04-01T04:17:02;98423.12;;;9.41;63.03
74722;BME280;63470;49.826;6.740;2023-04-01T04:19:34;98431.17;;;9.40;63.06
74722;BME280;63470;49.826;6.740;2023-04-01T04:22:07;98427.38;;;9.38;63.06
74722;BME280;63470;49.826;6.740;2023-04-01T04:24:34;98432.13;;;9.37;63.07
74722;BME280;63470;49.826;6.740;2023-04-01T04:27:07;98434.27;;;9.35;63.03
74722;BME280;63470;49.826;6.740;2023-04-01T04:29:35;98429.59;;;9.32;63.01
74722;BME280;63470;49.826;6.740;2023-04-01T04:32:08;98428.68;;;9.30;63.03
74722;BME280;63470;49.826;6.740;2023-04-01T04:34:36;98425.30;;;9.29;63.04
74722;BME280;63470;49.826;6.740;2023-04-01T04:37:09;98423.51;;;9.28;63.00
74722;BME280;63470;49.826;6.740;2023-04-01T04:39:37;98424.50;;;9.28;62.98
74722;BME280;63470;49.826;6.740;2023-04-01T04:42:08;98416.77;;;9.27;63.02
74722;BME280;63470;49.826;6.740;2023-04-01T04:44:38;98423.84;;;9.27;62.99
74722;BME280;63470;49.826;6.740;2023-04-01T04:47:09;98421.38;;;9.27;62.96
74722;BME280;63470;49.826;6.740;2023-04-01T04:49:40;98420.18;;;9.27;62.97
74722;BME280;63470;49.826;6.740;2023-04-01T04:52:10;98424.17;;;9.27;62.99
74722;BME280;63470;49.826;6.740;2023-04-01T04:54:45;98430.48;;;9.28;62.97
74722;BME280;63470;49.826;6.740;2023-04-01T04:57:11;98434.59;;;9.28;62.97
74722;BME280;63470;49.826;6.740;2023-04-01T04:59:44;98440.70;;;9.30;62.98
74722;BME280;63470;49.826;6.740;2023-04-01T05:02:11;98434.38;;;9.31;62.93
74722;BME280;63470;49.826;6.740;2023-04-01T05:04:42;98434.50;;;9.31;62.92
74722;BME280;63470;49.826;6.740;2023-04-01T05:07:12;98438.89;;;9.30;62.92
74722;BME280;63470;49.826;6.740;2023-04-01T05:09:43;98441.37;;;9.30;62.93
74722;BME280;63470;49.826;6.740;2023-04-01T05:12:13;98445.16;;;9.29;62.94
74722;BME280;63470;49.826;6.740;2023-04-01T05:14:49;98441.99;;;9.29;62.94
74722;BME280;63470;49.826;6.740;2023-04-01T05:17:17;98439.57;;;9.29;62.94
74722;BME280;63470;49.826;6.740;2023-04-01T05:19:45;98435.35;;;9.30;62.96
74722;BME280;63470;49.826;6.740;2023-04-01T05:22:15;98435.45;;;9.33;62.97
74722;BME280;63470;49.826;6.740;2023-04-01T05:24:50;98434.84;;;9.35;62.96
74722;BME280;63470;49.826;6.740;2023-04-01T05:27:18;98432.80;;;9.37;62.95
74722;BME280;63470;49.826;6.740;2023-04-01T05:29:51;98433.20;;;9.39;62.93
74722;BME280;63470;49.826;6.740;2023-04-01T05:32:19;98433.39;;;9.40;62.93
74722;BME280;63470;49.826;6.740;2023-04-01T05:34:50;98438.56;;;9.41;62.93
74722;BME280;63470;49.826;6.740;2023-04-01T05:37:18;98439.41;;;9.41;62.92
74722;BME280;63470;49.826;6.740;2023-04-01T05:39:48;98445.26;;;9.43;62.95
74722;BME280;63470;49.826;6.740;2023-04-01T05:42:18;98437.23;;;9.45;62.93
74722;BME280;63470;49.826;6.740;2023-04-01T05:44:53;98439.96;;;9.47;62.96
74722;BME280;63470;49.826;6.740;2023-04-01T05:47:21;98437.44;;;9.48;62.95
74722;BME280;63470;49.826;6.740;2023-04-01T05:49:49;98444.16;;;9.50;62.95
74722;BME280;63470;49.826;6.740;2023-04-01T05:52:25;98443.98;;;9.53;62.94
74722;BME280;63470;49.826;6.740;2023-04-01T05:54:50;98443.94;;;9.56;62.95
74722;BME280;63470;49.826;6.740;2023-04-01T05:57:24;98454.36;;;9.59;62.94
74722;BME280;63470;49.826;6.740;2023-04-01T05:59:51;98445.48;;;9.62;62.95
74722;BME280;63470;49.826;6.740;2023-04-01T06:02:22;98450.93;;;9.66;62.92
74722;BME280;63470;49.826;6.740;2023-04-01T06:05:11;98453.37;;;9.69;62.89
74722;BME280;63470;49.826;6.740;2023-04-01T06:07:24;98454.47;;;9.72;62.89
74722;BME280;63470;49.826;6.740;2023-04-01T06:09:54;98462.13;;;9.76;62.88
74722;BME280;63470;49.826;6.740;2023-04-01T06:12:48;98462.18;;;9.79;62.88
74722;BME280;63470;49.826;6.740;2023-04-01T06:20:28;98467.56;;;9.82;62.88
74722;BME280;63470;49.826;6.740;2023-04-01T06:45:14;98489.88;;;9.88;62.86
74722;BME280;63470;49.826;6.740;2023-04-01T06:47:51;98493.43;;;9.88;62.83
74722;BME280;63470;49.826;6.740;2023-04-01T06:57:41;98493.39;;;9.93;62.86
74722;BME280;63470;49.826;6.740;2023-04-01T07:00:22;98496.62;;;9.95;62.86
74722;BME280;63470;49.826;6.740;2023-04-01T07:02:45;98496.14;;;9.96;62.88
74722;BME280;63470;49.826;6.740;2023-04-01T07:05:07;98503.80;;;9.98;62.89
74722;BME280;63470;49.826;6.740;2023-04-01T07:07:53;98506.25;;;9.99;62.86
74722;BME280;63470;49.826;6.740;2023-04-01T07:10:09;98503.45;;;9.99;62.83
74722;BME280;63470;49.826;6.740;2023-04-01T07:12:42;98501.23;;;10.01;62.86
74722;BME280;63470;49.826;6.740;2023-04-01T07:15:19;98503.80;;;10.02;62.86
74722;BME280;63470;49.826;6.740;2023-04-01T07:17:39;98506.59;;;10.04;62.87
74722;BME280;63470;49.826;6.740;2023-04-01T07:20:17;98508.00;;;10.11;62.83
74722;BME280;63470;49.826;6.740;2023-04-01T07:22:42;98512.29;;;10.17;62.79
74722;BME280;63470;49.826;6.740;2023-04-01T07:25:18;98507.75;;;10.23;62.73
74722;BME280;63470;49.826;6.740;2023-04-01T07:27:42;98514.64;;;10.30;62.71
74722;BME280;63470;49.826;6.740;2023-04-01T07:30:16;98517.12;;;10.33;62.69
74722;BME280;63470;49.826;6.740;2023-04-01T07:32:54;98520.39;;;10.40;62.68
74722;BME280;63470;49.826;6.740;2023-04-01T07:40:30;98532.95;;;10.39;62.64
74722;BME280;63470;49.826;6.740;2023-04-01T07:45:30;98531.35;;;10.44;62.63
74722;BME280;63470;49.826;6.740;2023-04-01T07:47:55;98527.17;;;10.46;62.61
74722;BME280;63470;49.826;6.740;2023-04-01T07:50:31;98536.38;;;10.47;62.60
74722;BME280;63470;49.826;6.740;2023-04-01T07:55:50;98533.66;;;10.53;62.60
74722;BME280;63470;49.826;6.740;2023-04-01T08:00:24;98532.38;;;10.60;62.63
74722;BME280;63470;49.826;6.740;2023-04-01T08:02:58;98538.33;;;10.69;62.61
74722;BME280;63470;49.826;6.740;2023-04-01T08:08:02;98536.06;;;10.79;62.66
74722;BME280;63470;49.826;6.740;2023-04-01T08:15:38;98545.28;;;10.97;62.69
74722;BME280;63470;49.826;6.740;2023-04-01T08:20:30;98546.39;;;11.11;62.57
74722;BME280;63470;49.826;6.740;2023-04-01T08:22:51;98552.88;;;11.24;62.52
74722;BME280;63470;49.826;6.740;2023-04-01T08:25:25;98556.92;;;11.34;62.51
74722;BME280;63470;49.826;6.740;2023-04-01T08:27:57;98556.70;;;11.45;62.47
74722;BME280;63470;49.826;6.740;2023-04-01T08:30:25;98559.02;;;11.60;62.43
74722;BME280;63470;49.826;6.740;2023-04-01T08:32:57;98554.34;;;11.76;62.30
74722;BME280;63470;49.826;6.740;2023-04-01T08:37:50;98554.59;;;11.98;62.20
74722;BME280;63470;49.826;6.740;2023-04-01T08:43:34;98551.71;;;12.24;62.10
74722;BME280;63470;49.826;6.740;2023-04-01T08:50:46;98560.77;;;12.37;62.03
74722;BME280;63470;49.826;6.740;2023-04-01T08:55:31;98558.73;;;12.30;62.18
74722;BME280;63470;49.826;6.740;2023-04-01T09:03:25;98565.08;;;12.25;62.47
74722;BME280;63470;49.826;6.740;2023-04-01T09:05:46;98569.48;;;12.33;62.33
74722;BME280;63470;49.826;6.740;2023-04-01T09:08:08;98566.18;;;12.38;62.29
74722;BME280;63470;49.826;6.740;2023-04-01T09:10:43;98567.42;;;12.48;62.22
74722;BME280;63470;49.826;6.740;2023-04-01T09:15:42;98568.38;;;12.76;61.95
74722;BME280;63470;49.826;6.740;2023-04-01T09:28:19;98573.89;;;12.47;62.50
74722;BME280;63470;49.826;6.740;2023-04-01T09:30:34;98569.05;;;12.68;62.22
74722;BME280;63470;49.826;6.740;2023-04-01T09:35:55;98575.51;;;13.09;61.58
74722;BME280;63470;49.826;6.740;2023-04-01T09:50:35;98593.27;;;12.37;62.38
74722;BME280;63470;49.826;6.740;2023-04-01T09:53:33;98596.88;;;12.30;62.52
74722;BME280;63470;49.826;6.740;2023-04-01T10:01:15;98600.47;;;12.38;62.41
74722;BME280;63470;49.826;6.740;2023-04-01T10:13:17;98608.01;;;12.55;62.57
74722;BME280;63470;49.826;6.740;2023-04-01T10:15:50;98605.02;;;12.65;62.55
74722;BME280;63470;49.826;6.740;2023-04-01T10:21:09;98607.36;;;13.01;62.14
74722;BME280;63470;49.826;6.740;2023-04-01T10:23:22;98611.44;;;12.97;62.11
74722;BME280;63470;49.826;6.740;2023-04-01T10:25:57;98610.62;;;12.91;62.26
74722;BME280;63470;49.826;6.740;2023-04-01T10:28:27;98609.62;;;12.96;62.35
74722;BME280;63470;49.826;6.740;2023-04-01T10:36:02;98607.10;;;13.00;62.17
74722;BME280;63470;49.826;6.740;2023-04-01T10:43:47;98604.48;;;12.75;62.35
74722;BME280;63470;49.826;6.740;2023-04-01T10:53:41;98610.48;;;12.15;63.02
74722;BME280;63470;49.826;6.740;2023-04-01T10:58:27;98614.98;;;12.02;63.15
74722;BME280;63470;49.826;6.740;2023-04-01T11:13:42;98612.42;;;12.00;63.05
74722;BME280;63470;49.826;6.740;2023-04-01T11:16:05;98617.06;;;12.07;62.92
74722;BME280;63470;49.826;6.740;2023-04-01T11:18:56;98618.83;;;12.15;62.79
74722;BME280;63470;49.826;6.740;2023-04-01T11:26:02;98607.05;;;12.59;62.40
74722;BME280;63470;49.826;6.740;2023-04-01T11:31:00;98615.07;;;12.82;62.19
74722;BME280;63470;49.826;6.740;2023-04-01T11:33:20;98622.05;;;12.66;62.39
74722;BME280;63470;49.826;6.740;2023-04-01T11:38:32;98632.38;;;12.26;63.01
74722;BME280;63470;49.826;6.740;2023-04-01T11:45:50;98646.44;;;12.02;63.38
74722;BME280;63470;49.826;6.740;2023-04-01T11:48:34;98649.16;;;12.05;63.29
74722;BME280;63470;49.826;6.740;2023-04-01T11:53:26;98652.83;;;12.03;63.26
74722;BME280;63470;49.826;6.740;2023-04-01T11:56:01;98659.14;;;12.07;63.22
74722;BME280;63470;49.826;6.740;2023-04-01T12:01:17;98656.09;;;12.18;63.02
74722;BME280;63470;49.826;6.740;2023-04-01T12:11:16;98676.25;;;11.86;63.33
74722;BME280;63470;49.826;6.740;2023-04-01T12:13:40;98671.59;;;11.76;63.42
74722;BME280;63470;49.826;6.740;2023-04-01T12:16:07;98673.52;;;11.70;63.52
74722;BME280;63470;49.826;6.740;2023-04-01T12:18:37;98678.91;;;11.75;63.51
74722;BME280;63470;49.826;6.740;2023-04-01T12:21:02;98682.25;;;11.87;63.41
74722;BME280;63470;49.826;6.740;2023-04-01T12:31:14;98697.66;;;12.21;63.37
74722;BME280;63470;49.826;6.740;2023-04-01T12:38:36;98700.10;;;12.73;62.95
74722;BME280;63470;49.826;6.740;2023-04-01T12:44:04;98704.31;;;12.95;62.89
74722;BME280;63470;49.826;6.740;2023-04-01T12:46:09;98700.76;;;13.03;62.84
74722;BME280;63470;49.826;6.740;2023-04-01T12:51:17;98700.73;;;13.59;62.46
74722;BME280;63470;49.826;6.740;2023-04-01T12:55:56;98699.56;;;13.97;62.11
74722;BME280;63470;49.826;6.740;2023-04-01T13:01:16;98702.55;;;13.88;62.46
74722;BME280;63470;49.826;6.740;2023-04-01T13:03:43;98710.24;;;13.79;62.64
74722;BME280;63470;49.826;6.740;2023-04-01T13:11:09;98716.97;;;13.47;63.09
74722;BME280;63470;49.826;6.740;2023-04-01T13:13:53;98719.29;;;13.47;63.18
74722;BME280;63470;49.826;6.740;2023-04-01T13:16:03;98723.27;;;13.54;63.13
74722;BME280;63470;49.826;6.740;2023-04-01T13:18:53;98719.09;;;13.56;63.04
74722;BME280;63470;49.826;6.740;2023-04-01T13:21:19;98724.36;;;13.51;63.09
74722;BME280;63470;49.826;6.740;2023-04-01T13:26:37;98726.02;;;13.59;63.06
74722;BME280;63470;49.826;6.740;2023-04-01T13:28:34;98728.20;;;13.50;63.06
74722;BME280;63470;49.826;6.740;2023-04-01T13:33:42;98730.59;;;13.60;63.24
74722;BME280;63470;49.826;6.740;2023-04-01T13:36:28;98729.38;;;13.89;62.81
74722;BME280;63470;49.826;6.740;2023-04-01T13:43:39;98732.02;;;14.29;62.39
74722;BME280;63470;49.826;6.740;2023-04-01T13:53:49;98743.91;;;13.30;63.28
74722;BME280;63470;49.826;6.740;2023-04-01T14:01:15;98745.88;;;12.90;63.63
74722;BME280;63470;49.826;6.740;2023-04-01T14:04:03;98745.33;;;12.99;63.52
74722;BME280;63470;49.826;6.740;2023-04-01T14:13:59;98754.64;;;13.09;63.18
74722;BME280;63470;49.826;6.740;2023-04-01T14:21:33;98762.73;;;13.11;63.29
74722;BME280;63470;49.826;6.740;2023-04-01T14:33:58;98774.39;;;12.88;63.57
74722;BME280;63470;49.826;6.740;2023-04-01T14:36:43;98777.80;;;12.77;63.62
74722;BME280;63470;49.826;6.740;2023-04-01T14:38:59;98776.89;;;12.65;63.72
74722;BME280;63470;49.826;6.740;2023-04-01T14:44:11;98787.41;;;12.39;63.90
74722;BME280;63470;49.826;6.740;2023-04-01T14:46:37;98792.38;;;12.30;64.01
74722;BME280;63470;49.826;6.740;2023-04-01T14:49:00;98797.69;;;12.31;64.01
74722;BME280;63470;49.826;6.740;2023-04-01T14:51:18;98787.31;;;12.37;63.93
74722;BME280;63470;49.826;6.740;2023-04-01T14:58:50;98789.30;;;12.51;63.71
74722;BME280;63470;49.826;6.740;2023-04-01T15:01:45;98796.16;;;12.50;63.76
74722;BME280;63470;49.826;6.740;2023-04-01T15:03:58;98798.86;;;12.44;63.81
74722;BME280;63470;49.826;6.740;2023-04-01T15:14:16;98810.91;;;12.15;64.04
74722;BME280;63470;49.826;6.740;2023-04-01T15:16:28;98810.73;;;12.08;64.06
74722;BME280;63470;49.826;6.740;2023-04-01T15:21:50;98821.84;;;11.98;64.18
74722;BME280;63470;49.826;6.740;2023-04-01T15:24:07;98818.11;;;11.98;64.14
74722;BME280;63470;49.826;6.740;2023-04-01T15:26:47;98828.03;;;11.98;64.09
74722;BME280;63470;49.826;6.740;2023-04-01T15:31:33;98825.48;;;11.95;64.08
74722;BME280;63470;49.826;6.740;2023-04-01T15:34:19;98832.91;;;11.96;64.06
74722;BME280;63470;49.826;6.740;2023-04-01T15:36:39;98831.59;;;11.96;63.97
74722;BME280;63470;49.826;6.740;2023-04-01T15:39:01;98835.12;;;11.94;63.93
74722;BME280;63470;49.826;6.740;2023-04-01T15:41:53;98835.98;;;11.91;63.97
74722;BME280;63470;49.826;6.740;2023-04-01T15:43:53;98836.01;;;11.88;64.01
74722;BME280;63470;49.826;6.740;2023-04-01T15:46:48;98837.40;;;11.81;64.08
74722;BME280;63470;49.826;6.740;2023-04-01T15:51:48;98838.16;;;11.63;64.19
74722;BME280;63470;49.826;6.740;2023-04-01T15:54:25;98842.98;;;11.52;64.18
74722;BME280;63470;49.826;6.740;2023-04-01T15:59:26;98850.33;;;11.37;64.18
74722;BME280;63470;49.826;6.740;2023-04-01T16:01:55;98854.16;;;11.30;64.21
74722;BME280;63470;49.826;6.740;2023-04-01T16:06:49;98853.31;;;11.16;64.29
74722;BME280;63470;49.826;6.740;2023-04-01T16:14:17;98859.92;;;11.14;64.23
74722;BME280;63470;49.826;6.740;2023-04-01T16:16:51;98865.88;;;11.14;64.21
74722;BME280;63470;49.826;6.740;2023-04-01T16:19:30;98871.23;;;11.12;64.21
74722;BME280;63470;49.826;6.740;2023-04-01T16:21:36;98873.38;;;11.08;64.21
74722;BME280;63470;49.826;6.740;2023-04-01T16:24:30;98875.70;;;11.04;64.24
74722;BME280;63470;49.826;6.740;2023-04-01T16:26:39;98874.95;;;10.99;64.24
74722;BME280;63470;49.826;6.740;2023-04-01T16:31:46;98876.84;;;10.91;64.24
74722;BME280;63470;49.826;6.740;2023-04-01T16:34:15;98877.89;;;10.85;64.24
74722;BME280;63470;49.826;6.740;2023-04-01T16:36:35;98879.64;;;10.83;64.32
74722;BME280;63470;49.826;6.740;2023-04-01T16:41:36;98889.77;;;10.84;64.34
74722;BME280;63470;49.826;6.740;2023-04-01T16:44:19;98894.34;;;10.85;64.32
74722;BME280;63470;49.826;6.740;2023-04-01T16:46:44;98901.83;;;10.85;64.27
74722;BME280;63470;49.826;6.740;2023-04-01T16:51:37;98907.67;;;10.86;64.23
74722;BME280;63470;49.826;6.740;2023-04-01T16:54:13;98912.80;;;10.83;64.25
74722;BME280;63470;49.826;6.740;2023-04-01T16:56:39;98918.41;;;10.79;64.32
74722;BME280;63470;49.826;6.740;2023-04-01T16:59:16;98914.27;;;10.75;64.39
74722;BME280;63470;49.826;6.740;2023-04-01T17:09:25;98929.38;;;10.75;64.49
74722;BME280;63470;49.826;6.740;2023-04-01T17:16:53;98940.18;;;10.73;64.47
74722;BME280;63470;49.826;6.740;2023-04-01T17:21:57;98944.53;;;10.69;64.47
74722;BME280;63470;49.826;6.740;2023-04-01T17:24:24;98952.08;;;10.66;64.44
74722;BME280;63470;49.826;6.740;2023-04-01T17:29:34;98954.44;;;10.58;64.41
74722;BME280;63470;49.826;6.740;2023-04-01T17:34:38;98958.65;;;10.55;64.39
74722;BME280;63470;49.826;6.740;2023-04-01T17:37:02;98961.85;;;10.56;64.39
74722;BME280;63470;49.826;6.740;2023-04-01T17:41:47;98971.22;;;10.59;64.45
74722;BME280;63470;49.826;6.740;2023-04-01T17:44:18;98970.56;;;10.61;64.44
74722;BME280;63470;49.826;6.740;2023-04-01T17:46:56;98974.36;;;10.61;64.40
74722;BME280;63470;49.826;6.740;2023-04-01T17:49:31;98972.53;;;10.59;64.41
74722;BME280;63470;49.826;6.740;2023-04-01T17:52:15;98979.62;;;10.59;64.43
74722;BME280;63470;49.826;6.740;2023-04-01T17:54:47;98980.80;;;10.58;64.44
74722;BME280;63470;49.826;6.740;2023-04-01T18:02:17;98988.52;;;10.57;64.48
74722;BME280;63470;49.826;6.740;2023-04-01T18:04:36;98993.48;;;10.57;64.45
74722;BME280;63470;49.826;6.740;2023-04-01T18:12:14;98996.70;;;10.56;64.47
74722;BME280;63470;49.826;6.740;2023-04-01T18:14:23;99002.03;;;10.55;64.46
74722;BME280;63470;49.826;6.740;2023-04-01T18:19:32;99005.36;;;10.57;64.41
74722;BME280;63470;49.826;6.740;2023-04-01T18:21:51;99006.27;;;10.56;64.42
74722;BME280;63470;49.826;6.740;2023-04-01T18:24:30;99013.31;;;10.56;64.43
74722;BME280;63470;49.826;6.740;2023-04-01T18:27:07;99018.97;;;10.56;64.43
74722;BME280;63470;49.826;6.740;2023-04-01T18:32:01;99021.17;;;10.50;64.38
74722;BME280;63470;49.826;6.740;2023-04-01T18:34:42;99025.91;;;10.47;64.46
74722;BME280;63470;49.826;6.740;2023-04-01T18:36:53;99028.89;;;10.47;64.57
74722;BME280;63470;49.826;6.740;2023-04-01T18:39:34;99031.91;;;10.46;64.48
74722;BME280;63470;49.826;6.740;2023-04-01T18:41:53;99034.87;;;10.44;64.50
74722;BME280;63470;49.826;6.740;2023-04-01T18:44:49;99035.79;;;10.43;64.51
74722;BME280;63470;49.826;6.740;2023-04-01T18:47:15;99040.73;;;10.43;64.46
74722;BME280;63470;49.826;6.740;2023-04-01T18:49:43;99045.94;;;10.43;64.46
74722;BME280;63470;49.826;6.740;2023-04-01T18:51:58;99047.08;;;10.41;64.44
74722;BME280;63470;49.826;6.740;2023-04-01T18:54:27;99046.90;;;10.39;64.46
74722;BME280;63470;49.826;6.740;2023-04-01T18:57:08;99052.66;;;10.37;64.46
74722;BME280;63470;49.826;6.740;2023-04-01T18:59:26;99051.67;;;10.36;64.46
74722;BME280;63470;49.826;6.740;2023-04-01T19:02:03;99060.66;;;10.37;64.49